sensor_id;sensor_type;location;lat;lon;timestamp;temperature;humidity
25811;DHT22;13645;52.460;13.910;2022-07-17T00:01:48;14.20;99.90
25811;DHT22;13645;52.460;13.910;2022-07-17T00:04:15;14.20;99.90
25811;DHT22;13645;52.460;13.910;2022-07-17T00:06:42;14.20;99.90
25811;DHT22;13645;52.460;13.910;2022-07-17T00:09:09;14.20;99.90
25811;DHT22;13645;52.460;13.910;2022-07-17T00:11:36;14.10;99.90
25811;DHT22;13645;52.460;13.910;2022-07-17T00:14:03;14.10;99.90
25811;DHT22;13645;52.460;13.910;2022-07-17T00:16:30;14.10;99.90
25811;DHT22;13645;52.460;13.910;2022-07-17T00:18:57;14.10;99.90
25811;DHT22;13645;52.460;13.910;2022-07-17T00:21:24;14.10;99.90
25811;DHT22;13645;52.460;13.910;2022-07-17T00:23:50;14.10;99.90
25811;DHT22;13645;52.460;13.910;2022-07-17T00:26:17;14.10;99.90
25811;DHT22;13645;52.460;13.910;2022-07-17T00:28:44;14.00;99.90
25811;DHT22;13645;52.460;13.910;2022-07-17T00:31:11;14.00;99.90
25811;DHT22;13645;52.460;13.910;2022-07-17T00:33:38;14.00;99.90
25811;DHT22;13645;52.460;13.910;2022-07-17T00:36:05;14.00;99.90
25811;DHT22;13645;52.460;13.910;2022-07-17T00:38:32;13.90;99.90
25811;DHT22;13645;52.460;13.910;2022-07-17T00:40:59;13.90;99.90
25811;DHT22;13645;52.460;13.910;2022-07-17T00:43:26;13.90;99.90
25811;DHT22;13645;52.460;13.910;2022-07-17T00:45:57;13.90;99.90
25811;DHT22;13645;52.460;13.910;2022-07-17T00:48:24;13.90;99.90
25811;DHT22;13645;52.460;13.910;2022-07-17T00:50:52;13.90;99.90
25811;DHT22;13645;52.460;13.910;2022-07-17T00:53:20;13.80;99.90
25811;DHT22;13645;52.460;13.910;2022-07-17T00:55:47;13.80;99.90
25811;DHT22;13645;52.460;13.910;2022-07-17T00:58:24;13.70;99.90
25811;DHT22;13645;52.460;13.910;2022-07-17T01:00:52;13.70;99.90
25811;DHT22;13645;52.460;13.910;2022-07-17T01:03:21;13.70;99.90
25811;DHT22;13645;52.460;13.910;2022-07-17T01:05:48;13.70;99.90
25811;DHT22;13645;52.460;13.910;2022-07-17T01:08:15;13.60;99.90
25811;DHT22;13645;52.460;13.910;2022-07-17T01:10:42;13.60;99.90
25811;DHT22;13645;52.460;13.910;2022-07-17T01:13:09;13.60;99.90
25811;DHT22;13645;52.460;13.910;2022-07-17T01:15:38;13.60;99.90
25811;DHT22;13645;52.460;13.910;2022-07-17T01:18:07;13.60;99.90
25811;DHT22;13645;52.460;13.910;2022-07-17T01:20:35;13.60;99.90
25811;DHT22;13645;52.460;13.910;2022-07-17T01:23:04;13.50;99.90
25811;DHT22;13645;52.460;13.910;2022-07-17T01:25:31;13.50;99.90
25811;DHT22;13645;52.460;13.910;2022-07-17T01:27:58;13.50;99.90
25811;DHT22;13645;52.460;13.910;2022-07-17T01:30:25;13.40;99.90
25811;DHT22;13645;52.460;13.910;2022-07-17T01:32:53;13.40;99.90
25811;DHT22;13645;52.460;13.910;2022-07-17T01:35:20;13.30;99.90
25811;DHT22;13645;52.460;13.910;2022-07-17T01:37:47;13.20;99.90
25811;DHT22;13645;52.460;13.910;2022-07-17T01:40:16;13.20;99.90
25811;DHT22;13645;52.460;13.910;2022-07-17T01:42:45;13.10;99.90
25811;DHT22;13645;52.460;13.910;2022-07-17T01:45:16;13.00;99.90
25811;DHT22;13645;52.460;13.910;2022-07-17T01:47:43;12.90;99.90
25811;DHT22;13645;52.460;13.910;2022-07-17T01:50:11;12.90;99.90
25811;DHT22;13645;52.460;13.910;2022-07-17T01:52:42;12.70;99.90
25811;DHT22;13645;52.460;13.910;2022-07-17T01:55:12;12.70;99.90
25811;DHT22;13645;52.460;13.910;2022-07-17T01:57:40;12.60;99.90
25811;DHT22;13645;52.460;13.910;2022-07-17T02:00:10;12.50;99.90
25811;DHT22;13645;52.460;13.910;2022-07-17T02:02:37;12.50;99.90
25811;DHT22;13645;52.460;13.910;2022-07-17T02:05:04;12.40;99.90
25811;DHT22;13645;52.460;13.910;2022-07-17T02:07:31;12.30;99.90
25811;DHT22;13645;52.460;13.910;2022-07-17T02:09:59;12.30;99.90
25811;DHT22;13645;52.460;13.910;2022-07-17T02:12:26;12.20;99.90
25811;DHT22;13645;52.460;13.910;2022-07-17T02:14:53;12.20;99.90
25811;DHT22;13645;52.460;13.910;2022-07-17T02:17:19;12.10;99.90
25811;DHT22;13645;52.460;13.910;2022-07-17T02:19:46;12.00;99.90
25811;DHT22;13645;52.460;13.910;2022-07-17T02:22:13;12.00;99.90
25811;DHT22;13645;52.460;13.910;2022-07-17T02:24:40;11.90;99.90
25811;DHT22;13645;52.460;13.910;2022-07-17T02:27:06;11.90;99.90
25811;DHT22;13645;52.460;13.910;2022-07-17T02:29:33;11.80;99.90
25811;DHT22;13645;52.460;13.910;2022-07-17T02:32:00;11.80;99.90
25811;DHT22;13645;52.460;13.910;2022-07-17T02:34:26;11.80;99.90
25811;DHT22;13645;52.460;13.910;2022-07-17T02:36:53;11.80;99.90
25811;DHT22;13645;52.460;13.910;2022-07-17T02:39:20;11.70;99.90
25811;DHT22;13645;52.460;13.910;2022-07-17T02:41:47;11.70;99.90
25811;DHT22;13645;52.460;13.910;2022-07-17T02:44:13;11.70;99.90
25811;DHT22;13645;52.460;13.910;2022-07-17T02:46:40;11.60;99.90
25811;DHT22;13645;52.460;13.910;2022-07-17T02:49:07;11.60;99.90
25811;DHT22;13645;52.460;13.910;2022-07-17T02:51:34;11.50;99.90
25811;DHT22;13645;52.460;13.910;2022-07-17T02:54:00;11.50;99.90
25811;DHT22;13645;52.460;13.910;2022-07-17T02:56:27;11.40;99.90
25811;DHT22;13645;52.460;13.910;2022-07-17T02:58:54;11.40;99.90
25811;DHT22;13645;52.460;13.910;2022-07-17T03:01:21;11.40;99.90
25811;DHT22;13645;52.460;13.910;2022-07-17T03:03:48;11.40;99.90
25811;DHT22;13645;52.460;13.910;2022-07-17T03:06:14;11.30;99.90
25811;DHT22;13645;52.460;13.910;2022-07-17T03:08:41;11.30;99.90
25811;DHT22;13645;52.460;13.910;2022-07-17T03:11:08;11.30;99.90
25811;DHT22;13645;52.460;13.910;2022-07-17T03:13:34;11.20;99.90
25811;DHT22;13645;52.460;13.910;2022-07-17T03:16:02;11.20;99.90
25811;DHT22;13645;52.460;13.910;2022-07-17T03:18:30;11.20;99.90
25811;DHT22;13645;52.460;13.910;2022-07-17T03:20:57;11.10;99.90
25811;DHT22;13645;52.460;13.910;2022-07-17T03:23:23;11.10;99.90
25811;DHT22;13645;52.460;13.910;2022-07-17T03:25:50;11.10;99.90
25811;DHT22;13645;52.460;13.910;2022-07-17T03:28:17;11.10;99.90
25811;DHT22;13645;52.460;13.910;2022-07-17T03:30:44;11.10;99.90
25811;DHT22;13645;52.460;13.910;2022-07-17T03:33:10;11.10;99.90
25811;DHT22;13645;52.460;13.910;2022-07-17T03:35:37;11.10;99.90
25811;DHT22;13645;52.460;13.910;2022-07-17T03:38:04;11.10;99.90
25811;DHT22;13645;52.460;13.910;2022-07-17T03:40:30;11.10;99.90
25811;DHT22;13645;52.460;13.910;2022-07-17T03:42:57;11.20;99.90
25811;DHT22;13645;52.460;13.910;2022-07-17T03:45:24;11.20;99.90
25811;DHT22;13645;52.460;13.910;2022-07-17T03:47:51;11.30;99.90
25811;DHT22;13645;52.460;13.910;2022-07-17T03:50:18;11.30;99.90
25811;DHT22;13645;52.460;13.910;2022-07-17T03:52:45;11.30;99.90
25811;DHT22;13645;52.460;13.910;2022-07-17T03:55:12;11.30;99.90
25811;DHT22;13645;52.460;13.910;2022-07-17T03:57:39;11.30;99.90
25811;DHT22;13645;52.460;13.910;2022-07-17T04:00:06;11.40;99.90
25811;DHT22;13645;52.460;13.910;2022-07-17T04:02:33;11.40;99.90
25811;DHT22;13645;52.460;13.910;2022-07-17T04:05:00;11.40;99.90
25811;DHT22;13645;52.460;13.910;2022-07-17T04:07:27;11.40;99.90
25811;DHT22;13645;52.460;13.910;2022-07-17T04:09:58;11.40;99.90
25811;DHT22;13645;52.460;13.910;2022-07-17T04:12:26;11.40;99.90
25811;DHT22;13645;52.460;13.910;2022-07-17T04:14:53;11.40;99.90
25811;DHT22;13645;52.460;13.910;2022-07-17T04:17:20;11.40;99.90
25811;DHT22;13645;52.460;13.910;2022-07-17T04:19:48;11.40;99.90
25811;DHT22;13645;52.460;13.910;2022-07-17T04:22:15;11.40;99.90
25811;DHT22;13645;52.460;13.910;2022-07-17T04:24:42;11.50;99.90
25811;DHT22;13645;52.460;13.910;2022-07-17T04:27:09;11.60;99.90
25811;DHT22;13645;52.460;13.910;2022-07-17T04:29:36;11.60;99.90
25811;DHT22;13645;52.460;13.910;2022-07-17T04:32:04;11.70;99.90
25811;DHT22;13645;52.460;13.910;2022-07-17T04:34:31;11.90;99.90
25811;DHT22;13645;52.460;13.910;2022-07-17T04:37:02;11.90;99.90
25811;DHT22;13645;52.460;13.910;2022-07-17T04:39:29;12.00;99.90
25811;DHT22;13645;52.460;13.910;2022-07-17T04:41:56;12.10;99.90
25811;DHT22;13645;52.460;13.910;2022-07-17T04:44:23;12.20;99.90
25811;DHT22;13645;52.460;13.910;2022-07-17T04:46:49;12.30;99.90
25811;DHT22;13645;52.460;13.910;2022-07-17T04:49:16;12.40;99.90
25811;DHT22;13645;52.460;13.910;2022-07-17T04:51:43;12.40;99.90
25811;DHT22;13645;52.460;13.910;2022-07-17T04:54:10;12.50;99.90
25811;DHT22;13645;52.460;13.910;2022-07-17T04:56:37;12.60;99.90
25811;DHT22;13645;52.460;13.910;2022-07-17T04:59:03;12.70;99.90
25811;DHT22;13645;52.460;13.910;2022-07-17T05:01:30;12.80;99.90
25811;DHT22;13645;52.460;13.910;2022-07-17T05:03:58;12.90;99.90
25811;DHT22;13645;52.460;13.910;2022-07-17T05:06:24;13.00;99.90
25811;DHT22;13645;52.460;13.910;2022-07-17T05:08:51;13.10;99.90
25811;DHT22;13645;52.460;13.910;2022-07-17T05:11:18;13.20;99.90
25811;DHT22;13645;52.460;13.910;2022-07-17T05:13:45;13.20;99.90
25811;DHT22;13645;52.460;13.910;2022-07-17T05:16:12;13.30;99.90
25811;DHT22;13645;52.460;13.910;2022-07-17T05:18:39;13.40;99.90
25811;DHT22;13645;52.460;13.910;2022-07-17T05:21:06;13.50;99.90
25811;DHT22;13645;52.460;13.910;2022-07-17T05:23:32;13.50;99.90
25811;DHT22;13645;52.460;13.910;2022-07-17T05:25:59;13.70;99.90
25811;DHT22;13645;52.460;13.910;2022-07-17T05:28:26;13.70;99.90
25811;DHT22;13645;52.460;13.910;2022-07-17T05:30:53;13.80;99.90
25811;DHT22;13645;52.460;13.910;2022-07-17T05:33:19;13.90;99.90
25811;DHT22;13645;52.460;13.910;2022-07-17T05:35:46;14.00;99.90
25811;DHT22;13645;52.460;13.910;2022-07-17T05:38:13;14.10;99.90
25811;DHT22;13645;52.460;13.910;2022-07-17T05:40:41;14.10;99.90
25811;DHT22;13645;52.460;13.910;2022-07-17T05:43:09;14.20;99.90
25811;DHT22;13645;52.460;13.910;2022-07-17T05:45:35;14.30;99.90
25811;DHT22;13645;52.460;13.910;2022-07-17T05:48:03;14.40;99.90
25811;DHT22;13645;52.460;13.910;2022-07-17T05:50:29;14.50;99.90
25811;DHT22;13645;52.460;13.910;2022-07-17T05:52:56;14.50;99.90
25811;DHT22;13645;52.460;13.910;2022-07-17T05:55:23;14.60;99.90
25811;DHT22;13645;52.460;13.910;2022-07-17T05:57:50;14.70;99.90
25811;DHT22;13645;52.460;13.910;2022-07-17T06:00:17;14.80;99.90
25811;DHT22;13645;52.460;13.910;2022-07-17T06:02:45;14.90;99.90
25811;DHT22;13645;52.460;13.910;2022-07-17T06:05:11;15.00;99.90
25811;DHT22;13645;52.460;13.910;2022-07-17T06:07:45;15.10;99.90
25811;DHT22;13645;52.460;13.910;2022-07-17T06:10:12;15.20;99.90
25811;DHT22;13645;52.460;13.910;2022-07-17T06:12:39;15.30;99.90
25811;DHT22;13645;52.460;13.910;2022-07-17T06:15:06;15.50;99.90
25811;DHT22;13645;52.460;13.910;2022-07-17T06:17:33;15.60;99.90
25811;DHT22;13645;52.460;13.910;2022-07-17T06:20:08;15.80;99.90
25811;DHT22;13645;52.460;13.910;2022-07-17T06:22:35;16.00;99.90
25811;DHT22;13645;52.460;13.910;2022-07-17T06:25:02;16.00;99.90
25811;DHT22;13645;52.460;13.910;2022-07-17T06:27:29;16.00;99.90
25811;DHT22;13645;52.460;13.910;2022-07-17T06:29:55;16.00;99.90
25811;DHT22;13645;52.460;13.910;2022-07-17T06:32:22;16.10;99.90
25811;DHT22;13645;52.460;13.910;2022-07-17T06:34:49;16.20;99.90
25811;DHT22;13645;52.460;13.910;2022-07-17T06:37:16;16.30;99.90
25811;DHT22;13645;52.460;13.910;2022-07-17T06:39:43;16.10;99.90
25811;DHT22;13645;52.460;13.910;2022-07-17T06:42:10;15.90;99.90
25811;DHT22;13645;52.460;13.910;2022-07-17T06:44:37;15.70;99.90
25811;DHT22;13645;52.460;13.910;2022-07-17T06:47:04;15.70;99.90
25811;DHT22;13645;52.460;13.910;2022-07-17T06:49:31;15.70;99.90
25811;DHT22;13645;52.460;13.910;2022-07-17T06:51:58;15.70;99.90
25811;DHT22;13645;52.460;13.910;2022-07-17T06:54:25;15.80;99.90
25811;DHT22;13645;52.460;13.910;2022-07-17T06:56:53;16.10;99.90
25811;DHT22;13645;52.460;13.910;2022-07-17T06:59:19;16.30;99.90
25811;DHT22;13645;52.460;13.910;2022-07-17T07:01:46;16.40;99.90
25811;DHT22;13645;52.460;13.910;2022-07-17T07:04:13;16.60;99.90
25811;DHT22;13645;52.460;13.910;2022-07-17T07:06:40;16.90;99.90
25811;DHT22;13645;52.460;13.910;2022-07-17T07:09:08;17.20;99.90
25811;DHT22;13645;52.460;13.910;2022-07-17T07:11:41;17.40;99.90
25811;DHT22;13645;52.460;13.910;2022-07-17T07:14:08;17.30;99.90
25811;DHT22;13645;52.460;13.910;2022-07-17T07:16:35;17.40;99.90
25811;DHT22;13645;52.460;13.910;2022-07-17T07:19:02;17.40;99.90
25811;DHT22;13645;52.460;13.910;2022-07-17T07:21:29;17.20;99.90
25811;DHT22;13645;52.460;13.910;2022-07-17T07:23:56;17.40;99.90
25811;DHT22;13645;52.460;13.910;2022-07-17T07:26:24;17.50;99.90
25811;DHT22;13645;52.460;13.910;2022-07-17T07:28:50;17.60;99.90
25811;DHT22;13645;52.460;13.910;2022-07-17T07:31:17;17.60;99.90
25811;DHT22;13645;52.460;13.910;2022-07-17T07:33:44;17.60;99.90
25811;DHT22;13645;52.460;13.910;2022-07-17T07:36:11;17.70;99.90
25811;DHT22;13645;52.460;13.910;2022-07-17T07:38:39;17.70;99.90
25811;DHT22;13645;52.460;13.910;2022-07-17T07:41:06;17.70;99.90
25811;DHT22;13645;52.460;13.910;2022-07-17T07:43:33;17.60;99.90
25811;DHT22;13645;52.460;13.910;2022-07-17T07:45:59;17.50;99.90
25811;DHT22;13645;52.460;13.910;2022-07-17T07:48:26;17.40;99.90
25811;DHT22;13645;52.460;13.910;2022-07-17T07:50:53;17.20;99.90
25811;DHT22;13645;52.460;13.910;2022-07-17T07:53:20;17.20;99.90
25811;DHT22;13645;52.460;13.910;2022-07-17T07:55:46;17.40;99.90
25811;DHT22;13645;52.460;13.910;2022-07-17T07:58:13;17.40;99.90
25811;DHT22;13645;52.460;13.910;2022-07-17T08:00:43;17.30;99.90
25811;DHT22;13645;52.460;13.910;2022-07-17T08:03:11;17.30;99.90
25811;DHT22;13645;52.460;13.910;2022-07-17T08:05:38;17.30;99.90
25811;DHT22;13645;52.460;13.910;2022-07-17T08:08:05;17.60;99.90
25811;DHT22;13645;52.460;13.910;2022-07-17T08:10:33;17.60;99.90
25811;DHT22;13645;52.460;13.910;2022-07-17T08:12:59;17.90;99.90
25811;DHT22;13645;52.460;13.910;2022-07-17T08:15:27;18.00;99.90
25811;DHT22;13645;52.460;13.910;2022-07-17T08:17:54;18.30;99.90
25811;DHT22;13645;52.460;13.910;2022-07-17T08:20:22;18.40;99.90
25811;DHT22;13645;52.460;13.910;2022-07-17T08:22:49;18.40;99.90
25811;DHT22;13645;52.460;13.910;2022-07-17T08:25:32;18.50;99.90
25811;DHT22;13645;52.460;13.910;2022-07-17T08:28:00;18.50;99.90
25811;DHT22;13645;52.460;13.910;2022-07-17T08:30:27;18.50;99.90
25811;DHT22;13645;52.460;13.910;2022-07-17T08:32:54;18.50;99.90
25811;DHT22;13645;52.460;13.910;2022-07-17T08:35:21;18.50;99.90
25811;DHT22;13645;52.460;13.910;2022-07-17T08:37:50;18.50;99.90
25811;DHT22;13645;52.460;13.910;2022-07-17T08:40:25;18.30;99.90
25811;DHT22;13645;52.460;13.910;2022-07-17T08:42:54;18.10;99.90
25811;DHT22;13645;52.460;13.910;2022-07-17T08:45:21;18.10;99.90
25811;DHT22;13645;52.460;13.910;2022-07-17T08:47:51;18.00;99.90
25811;DHT22;13645;52.460;13.910;2022-07-17T08:50:25;18.10;99.90
25811;DHT22;13645;52.460;13.910;2022-07-17T08:52:53;18.10;99.90
25811;DHT22;13645;52.460;13.910;2022-07-17T08:55:20;17.90;99.90
25811;DHT22;13645;52.460;13.910;2022-07-17T08:57:48;17.90;99.90
25811;DHT22;13645;52.460;13.910;2022-07-17T09:00:18;18.10;99.90
25811;DHT22;13645;52.460;13.910;2022-07-17T09:02:56;18.10;99.90
25811;DHT22;13645;52.460;13.910;2022-07-17T09:05:26;17.90;99.90
25811;DHT22;13645;52.460;13.910;2022-07-17T09:07:54;17.90;99.90
25811;DHT22;13645;52.460;13.910;2022-07-17T09:13:19;18.10;99.90
25811;DHT22;13645;52.460;13.910;2022-07-17T09:15:48;18.20;99.90
25811;DHT22;13645;52.460;13.910;2022-07-17T09:18:15;18.30;99.90
25811;DHT22;13645;52.460;13.910;2022-07-17T09:20:49;18.30;99.90
25811;DHT22;13645;52.460;13.910;2022-07-17T09:23:18;18.50;99.90
25811;DHT22;13645;52.460;13.910;2022-07-17T09:25:49;18.50;99.90
25811;DHT22;13645;52.460;13.910;2022-07-17T09:28:17;18.50;99.90
25811;DHT22;13645;52.460;13.910;2022-07-17T09:30:48;18.50;99.90
25811;DHT22;13645;52.460;13.910;2022-07-17T09:33:20;18.20;99.90
25811;DHT22;13645;52.460;13.910;2022-07-17T09:35:51;18.30;99.90
25811;DHT22;13645;52.460;13.910;2022-07-17T09:38:34;18.30;99.90
25811;DHT22;13645;52.460;13.910;2022-07-17T09:41:16;18.40;99.90
25811;DHT22;13645;52.460;13.910;2022-07-17T09:43:48;18.80;99.90
25811;DHT22;13645;52.460;13.910;2022-07-17T09:46:20;19.30;99.90
25811;DHT22;13645;52.460;13.910;2022-07-17T09:48:51;19.60;99.90
25811;DHT22;13645;52.460;13.910;2022-07-17T09:51:24;19.70;99.90
25811;DHT22;13645;52.460;13.910;2022-07-17T09:53:59;20.10;99.90
25811;DHT22;13645;52.460;13.910;2022-07-17T09:56:27;20.30;99.90
25811;DHT22;13645;52.460;13.910;2022-07-17T09:58:59;20.90;99.90
25811;DHT22;13645;52.460;13.910;2022-07-17T10:01:26;21.10;99.90
25811;DHT22;13645;52.460;13.910;2022-07-17T10:03:54;21.20;99.90
25811;DHT22;13645;52.460;13.910;2022-07-17T10:06:22;21.00;99.90
25811;DHT22;13645;52.460;13.910;2022-07-17T10:08:51;20.60;99.90
25811;DHT22;13645;52.460;13.910;2022-07-17T10:11:20;20.50;99.90
25811;DHT22;13645;52.460;13.910;2022-07-17T10:13:51;20.60;99.90
25811;DHT22;13645;52.460;13.910;2022-07-17T10:16:27;21.00;99.90
25811;DHT22;13645;52.460;13.910;2022-07-17T10:18:55;21.50;99.90
25811;DHT22;13645;52.460;13.910;2022-07-17T10:21:25;21.50;99.90
25811;DHT22;13645;52.460;13.910;2022-07-17T10:28:57;22.70;99.90
25811;DHT22;13645;52.460;13.910;2022-07-17T10:31:29;22.80;99.90
25811;DHT22;13645;52.460;13.910;2022-07-17T10:34:02;23.10;99.90
25811;DHT22;13645;52.460;13.910;2022-07-17T10:36:42;23.80;99.90
25811;DHT22;13645;52.460;13.910;2022-07-17T10:39:18;22.80;99.90
25811;DHT22;13645;52.460;13.910;2022-07-17T10:41:59;22.60;99.90
25811;DHT22;13645;52.460;13.910;2022-07-17T10:44:28;22.80;99.90
25811;DHT22;13645;52.460;13.910;2022-07-17T10:46:56;23.40;99.90
25811;DHT22;13645;52.460;13.910;2022-07-17T10:49:24;24.00;99.00
25811;DHT22;13645;52.460;13.910;2022-07-17T10:51:51;24.40;99.00
25811;DHT22;13645;52.460;13.910;2022-07-17T10:54:19;24.70;96.80
25811;DHT22;13645;52.460;13.910;2022-07-17T10:56:47;24.90;94.40
25811;DHT22;13645;52.460;13.910;2022-07-17T10:59:15;25.10;95.30
25811;DHT22;13645;52.460;13.910;2022-07-17T11:01:42;24.90;95.30
25811;DHT22;13645;52.460;13.910;2022-07-17T11:04:08;25.30;95.10
25811;DHT22;13645;52.460;13.910;2022-07-17T11:06:39;24.80;94.60
25811;DHT22;13645;52.460;13.910;2022-07-17T11:11:42;24.60;93.80
25811;DHT22;13645;52.460;13.910;2022-07-17T11:14:10;24.30;95.00
25811;DHT22;13645;52.460;13.910;2022-07-17T11:16:37;24.60;94.00
25811;DHT22;13645;52.460;13.910;2022-07-17T11:19:10;24.60;93.70
25811;DHT22;13645;52.460;13.910;2022-07-17T11:21:47;24.70;94.00
25811;DHT22;13645;52.460;13.910;2022-07-17T11:24:14;24.70;94.20
25811;DHT22;13645;52.460;13.910;2022-07-17T11:26:42;25.00;92.50
25811;DHT22;13645;52.460;13.910;2022-07-17T11:29:11;25.20;92.10
25811;DHT22;13645;52.460;13.910;2022-07-17T11:31:38;24.80;90.60
25811;DHT22;13645;52.460;13.910;2022-07-17T11:34:07;24.80;91.70
25811;DHT22;13645;52.460;13.910;2022-07-17T11:36:38;25.30;91.90
25811;DHT22;13645;52.460;13.910;2022-07-17T11:39:06;25.50;90.10
25811;DHT22;13645;52.460;13.910;2022-07-17T11:41:39;25.30;90.30
25811;DHT22;13645;52.460;13.910;2022-07-17T11:44:09;25.30;87.50
25811;DHT22;13645;52.460;13.910;2022-07-17T11:46:39;25.20;86.60
25811;DHT22;13645;52.460;13.910;2022-07-17T11:49:07;25.10;87.50
25811;DHT22;13645;52.460;13.910;2022-07-17T11:51:44;25.40;85.80
25811;DHT22;13645;52.460;13.910;2022-07-17T11:54:13;25.30;84.40
25811;DHT22;13645;52.460;13.910;2022-07-17T11:56:42;24.90;84.30
25811;DHT22;13645;52.460;13.910;2022-07-17T11:59:09;25.40;83.70
25811;DHT22;13645;52.460;13.910;2022-07-17T12:01:41;25.80;84.20
25811;DHT22;13645;52.460;13.910;2022-07-17T12:04:11;25.90;83.00
25811;DHT22;13645;52.460;13.910;2022-07-17T12:06:43;25.70;82.50
25811;DHT22;13645;52.460;13.910;2022-07-17T12:09:10;25.40;83.00
25811;DHT22;13645;52.460;13.910;2022-07-17T12:11:55;25.50;80.80
25811;DHT22;13645;52.460;13.910;2022-07-17T12:14:22;25.80;80.10
25811;DHT22;13645;52.460;13.910;2022-07-17T12:16:51;26.00;79.80
25811;DHT22;13645;52.460;13.910;2022-07-17T12:19:27;26.20;79.80
25811;DHT22;13645;52.460;13.910;2022-07-17T12:22:18;26.50;77.60
25811;DHT22;13645;52.460;13.910;2022-07-17T12:24:48;26.40;76.10
25811;DHT22;13645;52.460;13.910;2022-07-17T12:27:16;26.70;78.30
25811;DHT22;13645;52.460;13.910;2022-07-17T12:29:44;27.00;76.00
25811;DHT22;13645;52.460;13.910;2022-07-17T12:32:16;26.80;75.90
25811;DHT22;13645;52.460;13.910;2022-07-17T12:34:46;26.80;73.10
25811;DHT22;13645;52.460;13.910;2022-07-17T12:37:16;26.50;73.30
25811;DHT22;13645;52.460;13.910;2022-07-17T12:39:47;26.60;71.20
25811;DHT22;13645;52.460;13.910;2022-07-17T12:42:14;27.00;72.40
25811;DHT22;13645;52.460;13.910;2022-07-17T12:44:42;27.20;71.00
25811;DHT22;13645;52.460;13.910;2022-07-17T12:47:09;26.80;71.30
25811;DHT22;13645;52.460;13.910;2022-07-17T12:49:36;26.90;71.80
25811;DHT22;13645;52.460;13.910;2022-07-17T12:52:03;27.00;73.90
25811;DHT22;13645;52.460;13.910;2022-07-17T12:54:30;27.30;70.30
25811;DHT22;13645;52.460;13.910;2022-07-17T12:56:58;27.30;71.90
25811;DHT22;13645;52.460;13.910;2022-07-17T12:59:25;27.70;72.40
25811;DHT22;13645;52.460;13.910;2022-07-17T13:01:52;27.80;72.40
25811;DHT22;13645;52.460;13.910;2022-07-17T13:04:20;27.40;70.00
25811;DHT22;13645;52.460;13.910;2022-07-17T13:06:50;27.00;69.90
25811;DHT22;13645;52.460;13.910;2022-07-17T13:09:16;27.10;71.10
25811;DHT22;13645;52.460;13.910;2022-07-17T13:11:46;27.30;70.00
25811;DHT22;13645;52.460;13.910;2022-07-17T13:14:13;27.60;69.20
25811;DHT22;13645;52.460;13.910;2022-07-17T13:16:41;27.60;69.60
25811;DHT22;13645;52.460;13.910;2022-07-17T13:19:08;26.90;70.30
25811;DHT22;13645;52.460;13.910;2022-07-17T13:21:35;26.80;71.40
25811;DHT22;13645;52.460;13.910;2022-07-17T13:24:02;27.10;71.00
25811;DHT22;13645;52.460;13.910;2022-07-17T13:26:29;27.50;69.30
25811;DHT22;13645;52.460;13.910;2022-07-17T13:28:57;27.60;68.60
25811;DHT22;13645;52.460;13.910;2022-07-17T13:31:24;27.80;68.40
25811;DHT22;13645;52.460;13.910;2022-07-17T13:33:51;27.60;65.30
25811;DHT22;13645;52.460;13.910;2022-07-17T13:36:17;27.40;67.00
25811;DHT22;13645;52.460;13.910;2022-07-17T13:38:45;27.20;68.00
25811;DHT22;13645;52.460;13.910;2022-07-17T13:41:12;27.30;66.70
25811;DHT22;13645;52.460;13.910;2022-07-17T13:43:39;27.00;65.90
25811;DHT22;13645;52.460;13.910;2022-07-17T13:46:06;26.90;66.90
25811;DHT22;13645;52.460;13.910;2022-07-17T13:48:32;27.00;67.80
25811;DHT22;13645;52.460;13.910;2022-07-17T13:50:59;27.40;65.50
25811;DHT22;13645;52.460;13.910;2022-07-17T13:53:26;27.60;64.50
25811;DHT22;13645;52.460;13.910;2022-07-17T13:55:53;27.30;67.90
25811;DHT22;13645;52.460;13.910;2022-07-17T13:58:20;27.30;65.20
25811;DHT22;13645;52.460;13.910;2022-07-17T14:00:47;27.50;64.90
25811;DHT22;13645;52.460;13.910;2022-07-17T14:03:14;27.30;62.10
25811;DHT22;13645;52.460;13.910;2022-07-17T14:05:40;27.30;63.20
25811;DHT22;13645;52.460;13.910;2022-07-17T14:08:07;27.50;63.80
25811;DHT22;13645;52.460;13.910;2022-07-17T14:10:34;27.80;61.90
25811;DHT22;13645;52.460;13.910;2022-07-17T14:13:01;27.70;62.10
25811;DHT22;13645;52.460;13.910;2022-07-17T14:15:28;27.70;63.20
25811;DHT22;13645;52.460;13.910;2022-07-17T14:17:55;27.20;63.00
25811;DHT22;13645;52.460;13.910;2022-07-17T14:20:22;26.60;64.30
25811;DHT22;13645;52.460;13.910;2022-07-17T14:22:49;27.10;63.30
25811;DHT22;13645;52.460;13.910;2022-07-17T14:25:15;27.20;65.50
25811;DHT22;13645;52.460;13.910;2022-07-17T14:27:42;27.60;63.10
25811;DHT22;13645;52.460;13.910;2022-07-17T14:30:09;27.80;63.50
25811;DHT22;13645;52.460;13.910;2022-07-17T14:32:38;27.70;61.70
25811;DHT22;13645;52.460;13.910;2022-07-17T14:35:05;27.70;60.10
25811;DHT22;13645;52.460;13.910;2022-07-17T14:37:32;27.30;64.60
25811;DHT22;13645;52.460;13.910;2022-07-17T14:40:07;26.90;63.80
25811;DHT22;13645;52.460;13.910;2022-07-17T14:42:34;26.60;65.70
25811;DHT22;13645;52.460;13.910;2022-07-17T14:45:02;26.40;65.80
25811;DHT22;13645;52.460;13.910;2022-07-17T14:47:29;26.40;65.00
25811;DHT22;13645;52.460;13.910;2022-07-17T14:49:56;26.40;63.20
25811;DHT22;13645;52.460;13.910;2022-07-17T14:52:36;26.50;66.00
25811;DHT22;13645;52.460;13.910;2022-07-17T14:55:13;26.70;63.60
25811;DHT22;13645;52.460;13.910;2022-07-17T14:58:13;26.80;66.40
25811;DHT22;13645;52.460;13.910;2022-07-17T15:01:07;26.90;61.80
25811;DHT22;13645;52.460;13.910;2022-07-17T15:03:56;27.10;63.30
25811;DHT22;13645;52.460;13.910;2022-07-17T15:06:30;27.00;63.70
25811;DHT22;13645;52.460;13.910;2022-07-17T15:09:05;26.90;62.60
25811;DHT22;13645;52.460;13.910;2022-07-17T15:11:34;27.00;62.20
25811;DHT22;13645;52.460;13.910;2022-07-17T15:14:01;26.50;65.10
25811;DHT22;13645;52.460;13.910;2022-07-17T15:16:42;26.70;66.00
25811;DHT22;13645;52.460;13.910;2022-07-17T15:19:34;26.70;64.20
25811;DHT22;13645;52.460;13.910;2022-07-17T15:22:10;26.90;63.20
25811;DHT22;13645;52.460;13.910;2022-07-17T15:24:39;26.90;65.20
25811;DHT22;13645;52.460;13.910;2022-07-17T15:27:12;26.90;63.80
25811;DHT22;13645;52.460;13.910;2022-07-17T15:29:43;26.70;65.70
25811;DHT22;13645;52.460;13.910;2022-07-17T15:32:10;26.70;64.70
25811;DHT22;13645;52.460;13.910;2022-07-17T15:34:41;26.60;64.10